Time;durP1;ratioP1;P1;durP2;ratioP2;P2;SDS_P1;SDS_P2;PMS_P1;PMS_P2;Temp;Humidity;BMP_temperature;BMP_pressure;BME280_temperature;BME280_humidity;BME280_pressure;Samples;Min_cycle;Max_cycle;Signal;HPM_P1;HPM_P2
2023/03/04 00:00:31;;;;;;;16.95;3.80;;;;;;;6.00;100.00;102524.06;6203320;23;20526;-70
2023/03/04 00:02:56;;;;;;;20.52;3.53;;;;;;;6.05;100.00;102523.97;6203106;23;20012;-70
2023/03/04 00:05:22;;;;;;;20.33;5.20;;;;;;;5.99;100.00;102526.72;6203568;23;20740;-71
2023/03/04 00:07:47;;;;;;;22.10;3.75;;;;;;;5.95;100.00;102534.72;6201641;23;20020;-71
2023/03/04 00:10:13;;;;;;;31.55;3.70;;;;;;;5.88;100.00;102526.88;6177776;23;20024;-71
2023/03/04 00:12:38;;;;;;;20.02;3.33;;;;;;;5.88;100.00;102527.75;6202035;23;20016;-71
2023/03/04 00:15:04;;;;;;;19.27;3.78;;;;;;;5.95;100.00;102526.78;6174967;23;20070;-70
2023/03/04 00:17:31;;;;;;;20.77;4.10;;;;;;;5.96;100.00;102522.34;6202304;23;20785;-70
2023/03/04 00:19:57;;;;;;;19.05;3.72;;;;;;;5.97;100.00;102525.00;6202696;23;20023;-70
2023/03/04 00:22:23;;;;;;;22.00;4.00;;;;;;;5.83;100.00;102529.59;6202319;23;20020;-71
2023/03/04 00:24:48;;;;;;;10.93;3.38;;;;;;;5.89;100.00;102520.69;6202405;23;20182;-69
2023/03/04 00:27:14;;;;;;;27.05;4.60;;;;;;;5.89;100.00;102515.38;6199393;23;20103;-71
2023/03/04 00:29:39;;;;;;;16.25;3.38;;;;;;;6.01;100.00;102519.63;6201852;23;20028;-71
2023/03/04 00:32:05;;;;;;;17.98;2.92;;;;;;;5.99;100.00;102514.38;6199445;23;20617;-70
2023/03/04 00:34:30;;;;;;;15.55;3.05;;;;;;;6.04;100.00;102523.09;6174811;23;20043;-70
2023/03/04 00:37:00;;;;;;;18.45;3.42;;;;;;;6.10;100.00;102522.13;6203580;23;20020;-69
2023/03/04 00:39:27;;;;;;;14.68;3.80;;;;;;;5.94;100.00;102522.38;6204681;23;20013;-70
2023/03/04 00:41:53;;;;;;;22.63;3.50;;;;;;;5.91;100.00;102526.81;6204776;23;20040;-70
2023/03/04 00:44:19;;;;;;;19.20;2.92;;;;;;;5.98;100.00;102515.28;6204691;23;20048;-70
2023/03/04 00:46:44;;;;;;;20.77;3.92;;;;;;;5.94;100.00;102519.72;6175690;23;20091;-68
2023/03/04 00:49:10;;;;;;;15.25;3.00;;;;;;;5.72;100.00;102519.19;6173565;23;20016;-70
2023/03/04 00:51:36;;;;;;;17.05;3.38;;;;;;;5.92;100.00;102508.31;6175196;23;20024;-69
2023/03/04 00:54:02;;;;;;;13.40;3.53;;;;;;;5.89;100.00;102513.63;6204033;23;20017;-68
2023/03/04 00:56:28;;;;;;;19.92;3.38;;;;;;;5.75;100.00;102518.25;6203917;23;20020;-69
2023/03/04 00:58:53;;;;;;;26.73;4.07;;;;;;;5.92;100.00;102504.75;6172512;23;20132;-70
2023/03/04 01:01:19;;;;;;;30.50;5.05;;;;;;;5.86;100.00;102511.00;6172254;23;20051;-69
2023/03/04 01:03:45;;;;;;;13.27;4.65;;;;;;;5.85;100.00;102514.56;6148866;23;20021;-69
2023/03/04 01:06:11;;;;;;;21.95;4.20;;;;;;;6.13;100.00;102512.34;6172847;23;20616;-69
2023/03/04 01:08:37;;;;;;;20.13;3.58;;;;;;;6.01;100.00;102512.56;6198208;23;20013;-68
2023/03/04 01:11:03;;;;;;;21.40;4.30;;;;;;;6.06;100.00;102515.13;6173295;23;20128;-70
2023/03/04 01:13:29;;;;;;;10.43;2.92;;;;;;;6.07;100.00;102519.50;6198859;23;20043;-68
2023/03/04 01:15:54;;;;;;;18.77;3.90;;;;;;;6.01;100.00;102524.91;6199114;23;20028;-69
2023/03/04 01:18:20;;;;;;;24.77;3.60;;;;;;;5.94;100.00;102513.56;6196382;23;20016;-69
2023/03/04 01:20:46;;;;;;;18.75;3.28;;;;;;;6.00;100.00;102515.22;6200672;23;20012;-69
2023/03/04 01:23:11;;;;;;;20.25;4.72;;;;;;;5.94;100.00;102511.78;6198834;23;20016;-70
2023/03/04 01:25:37;;;;;;;17.95;3.22;;;;;;;5.73;100.00;102506.84;6201689;23;20016;-70
2023/03/04 01:28:02;;;;;;;39.85;4.15;;;;;;;5.84;100.00;102506.66;6198697;23;20024;-69
2023/03/04 01:30:28;;;;;;;19.27;3.67;;;;;;;5.98;100.00;102502.03;6149685;23;20106;-68
2023/03/04 01:32:54;;;;;;;17.80;3.33;;;;;;;5.92;100.00;102504.75;6200816;23;20067;-69
2023/03/04 01:35:20;;;;;;;26.58;4.82;;;;;;;5.74;100.00;102499.75;6201147;23;20373;-70
2023/03/04 01:37:45;;;;;;;15.18;2.90;;;;;;;5.91;100.00;102497.69;6200744;23;20020;-70
2023/03/04 01:40:12;;;;;;;20.02;3.78;;;;;;;5.90;100.00;102490.66;6199680;23;20020;-69
2023/03/04 01:42:38;;;;;;;18.33;2.75;;;;;;;5.76;100.00;102492.66;6198286;23;20340;-70
2023/03/04 01:45:06;;;;;;;17.70;3.42;;;;;;;5.79;100.00;102493.50;6200456;23;20428;-69
2023/03/04 01:47:34;;;;;;;16.27;4.22;;;;;;;5.78;100.00;102489.09;6199943;23;20020;-69
2023/03/04 01:50:02;;;;;;;14.27;3.22;;;;;;;5.97;100.00;102492.31;6198687;23;20663;-68
2023/03/04 01:52:27;;;;;;;12.18;3.90;;;;;;;5.86;100.00;102487.19;6200583;23;20099;-70
2023/03/04 01:54:54;;;;;;;15.25;2.90;;;;;;;5.85;100.00;102490.72;6201424;23;20019;-69
2023/03/04 01:57:22;;;;;;;13.73;2.92;;;;;;;5.76;100.00;102492.66;6172926;23;20021;-71
2023/03/04 02:00:19;;;;;;;18.02;3.22;;;;;;;5.67;100.00;102488.38;6199125;23;20020;-73
2023/03/04 02:02:46;;;;;;;23.30;3.25;;;;;;;5.72;100.00;102481.25;6199892;23;20439;-73
2023/03/04 02:05:13;;;;;;;12.00;3.47;;;;;;;5.72;100.00;102484.78;6199351;23;20028;-71
2023/03/04 02:07:39;;;;;;;18.70;2.60;;;;;;;5.70;100.00;102477.75;6172282;23;20016;-70
2023/03/04 02:10:05;;;;;;;15.70;2.53;;;;;;;5.63;100.00;102478.78;6200642;23;20017;-72
2023/03/04 02:12:31;;;;;;;10.20;2.30;;;;;;;5.75;100.00;102470.63;6200454;23;20012;-68
2023/03/04 02:14:57;;;;;;;16.00;2.30;;;;;;;5.69;100.00;102471.59;6200582;23;20444;-70
2023/03/04 02:17:26;;;;;;;21.40;2.75;;;;;;;5.62;100.00;102469.06;6172926;23;20124;-71
2023/03/04 02:20:07;;;;;;;16.60;2.65;;;;;;;5.78;100.00;102472.34;6200598;23;20024;-71
2023/03/04 02:22:39;;;;;;;18.95;3.65;;;;;;;5.66;100.00;102466.34;6173020;23;20107;-71
2023/03/04 02:25:17;;;;;;;17.15;2.75;;;;;;;5.59;100.00;102466.50;6197903;23;20028;-69
2023/03/04 02:27:43;;;;;;;16.85;2.92;;;;;;;5.76;100.00;102464.41;6173401;23;20025;-72
2023/03/04 02:30:10;;;;;;;16.35;2.45;;;;;;;5.65;100.00;102458.44;6173014;23;20810;-70
2023/03/04 02:32:36;;;;;;;18.00;2.47;;;;;;;5.65;100.00;102454.03;6172674;23;20021;-68
2023/03/04 02:35:01;;;;;;;19.13;2.95;;;;;;;5.60;100.00;102457.66;6198903;23;20020;-70
2023/03/04 02:37:27;;;;;;;17.02;3.78;;;;;;;5.68;100.00;102450.47;6173713;23;20036;-70
2023/03/04 02:39:53;;;;;;;16.90;2.72;;;;;;;5.73;100.00;102453.91;6174222;23;20535;-70
2023/03/04 02:42:18;;;;;;;19.05;3.33;;;;;;;5.78;100.00;102451.19;6174065;23;20396;-70
2023/03/04 02:44:48;;;;;;;14.70;2.90;;;;;;;5.74;100.00;102450.34;6174569;23;20016;-68
2023/03/04 02:47:17;;;;;;;11.35;2.42;;;;;;;5.89;100.00;102450.06;6174447;23;20025;-69
2023/03/04 02:49:43;;;;;;;17.15;2.90;;;;;;;5.94;100.00;102448.25;6174659;23;20027;-68
2023/03/04 02:52:13;;;;;;;11.98;3.35;;;;;;;5.82;100.00;102451.06;6174190;23;20024;-69
2023/03/04 02:54:39;;;;;;;15.27;2.38;;;;;;;6.00;100.00;102444.63;6201138;23;20124;-69
2023/03/04 02:57:08;;;;;;;18.33;2.78;;;;;;;5.87;100.00;102443.94;6200600;23;20256;-72
2023/03/04 02:59:37;;;;;;;26.00;2.70;;;;;;;5.68;100.00;102446.03;6173124;23;20650;-72
2023/03/04 03:02:04;;;;;;;17.02;2.85;;;;;;;5.75;100.00;102437.97;6198304;23;20024;-68
2023/03/04 03:04:29;;;;;;;12.82;3.05;;;;;;;5.77;100.00;102436.16;6173714;23;20051;-71
2023/03/04 03:06:55;;;;;;;22.73;2.50;;;;;;;5.61;100.00;102435.56;6173316;23;20023;-72
2023/03/04 03:09:21;;;;;;;23.33;3.45;;;;;;;5.71;100.00;102435.38;6174263;23;20453;-70
2023/03/04 03:11:47;;;;;;;12.82;3.22;;;;;;;5.79;100.00;102423.81;6198367;23;20449;-72
2023/03/04 03:14:13;;;;;;;12.88;2.80;;;;;;;5.55;100.00;102418.03;6172904;23;20107;-72
2023/03/04 03:16:39;;;;;;;11.05;2.42;;;;;;;5.76;100.00;102427.38;6197989;23;20163;-70
2023/03/04 03:19:04;;;;;;;16.92;3.13;;;;;;;5.87;100.00;102414.81;6174412;23;20067;-69
2023/03/04 03:21:30;;;;;;;15.05;2.45;;;;;;;5.79;100.00;102421.16;6174743;23;20039;-71
2023/03/04 03:23:55;;;;;;;16.38;3.05;;;;;;;5.87;100.00;102419.22;6201014;23;20025;-72
2023/03/04 03:26:21;;;;;;;16.33;2.80;;;;;;;5.74;100.00;102417.72;6178420;23;20021;-67
2023/03/04 03:28:46;;;;;;;20.95;3.83;;;;;;;5.75;100.00;102414.16;6204465;23;20020;-72
2023/03/04 03:31:12;;;;;;;20.33;2.75;;;;;;;5.63;100.00;102409.97;6205099;23;20704;-70
2023/03/04 03:33:38;;;;;;;12.60;2.63;;;;;;;5.69;100.00;102407.22;6203217;23;20103;-70
2023/03/04 03:36:05;;;;;;;21.50;3.00;;;;;;;5.69;100.00;102404.56;6200365;23;20021;-69
2023/03/04 03:38:31;;;;;;;9.48;3.17;;;;;;;5.85;100.00;102406.03;6200146;23;20028;-71
2023/03/04 03:40:57;;;;;;;16.60;2.88;;;;;;;5.86;100.00;102407.75;6201969;23;20021;-71
2023/03/04 03:43:22;;;;;;;19.80;2.83;;;;;;;5.88;100.00;102408.63;6202502;23;20954;-71
2023/03/04 03:45:48;;;;;;;15.50;2.42;;;;;;;5.83;100.00;102405.19;6202279;23;20347;-71
2023/03/04 03:48:14;;;;;;;15.63;3.28;;;;;;;5.71;100.00;102402.75;6201177;23;20020;-69
2023/03/04 03:50:39;;;;;;;16.15;3.38;;;;;;;5.82;100.00;102403.41;6174706;23;20017;-70
2023/03/04 03:53:05;;;;;;;10.98;2.83;;;;;;;5.83;100.00;102405.19;6201489;23;20024;-70
2023/03/04 03:55:30;;;;;;;17.58;2.78;;;;;;;5.91;100.00;102405.03;6198647;23;20016;-71
2023/03/04 03:57:55;;;;;;;14.65;3.38;;;;;;;5.79;100.00;102411.44;6200204;23;20100;-69
2023/03/04 04:00:21;;;;;;;16.25;2.40;;;;;;;5.58;100.00;102410.06;6201570;23;20020;-73
2023/03/04 04:02:47;;;;;;;17.23;3.47;;;;;;;5.67;100.00;102417.84;6200265;23;20024;-69
2023/03/04 04:05:13;;;;;;;14.23;3.38;;;;;;;5.80;100.00;102407.88;6203882;23;20047;-69
2023/03/04 04:07:40;;;;;;;16.73;2.58;;;;;;;5.94;100.00;102408.53;6175665;23;20024;-70
2023/03/04 04:10:06;;;;;;;16.58;3.35;;;;;;;6.04;100.00;102406.59;6203310;23;20796;-70
2023/03/04 04:12:32;;;;;;;8.40;2.20;;;;;;;5.90;100.00;102403.28;6175821;23;20016;-69
2023/03/04 04:14:57;;;;;;;18.00;3.08;;;;;;;5.84;100.00;102406.06;6202712;23;20106;-70
2023/03/04 04:17:23;;;;;;;10.90;4.30;;;;;;;5.78;100.00;102406.19;6201809;23;20025;-70
2023/03/04 04:19:48;;;;;;;16.05;3.05;;;;;;;5.54;100.00;102410.13;6173104;23;20040;-69
2023/03/04 04:22:16;;;;;;;9.70;2.15;;;;;;;5.46;100.00;102407.59;6199071;23;20032;-67
2023/03/04 04:24:42;;;;;;;19.67;2.33;;;;;;;5.68;100.00;102406.34;6200487;23;20626;-70
2023/03/04 04:27:07;;;;;;;7.40;2.15;;;;;;;5.74;100.00;102401.84;6197558;22;20102;-70
2023/03/04 04:29:33;;;;;;;9.50;2.30;;;;;;;5.78;100.00;102408.81;6198223;23;20020;-69
2023/03/04 04:31:58;;;;;;;15.02;4.05;;;;;;;5.81;100.00;102398.16;6198985;23;20016;-72
2023/03/04 04:34:25;;;;;;;10.30;1.88;;;;;;;5.58;100.00;102406.53;6170490;23;20020;-67
2023/03/04 04:36:50;;;;;;;10.02;1.95;;;;;;;5.77;100.00;102405.28;6197568;23;20098;-70
2023/03/04 04:39:18;;;;;;;11.95;2.03;;;;;;;5.82;100.00;102399.91;6195242;23;20013;-69
2023/03/04 04:41:44;;;;;;;10.43;2.00;;;;;;;5.78;100.00;102398.25;6199233;23;20124;-69
2023/03/04 04:44:10;;;;;;;12.13;1.63;;;;;;;5.97;100.00;102405.84;6172999;23;20772;-71
2023/03/04 04:46:38;;;;;;;13.25;2.60;;;;;;;5.94;100.00;102411.19;6199948;23;20027;-70
2023/03/04 04:49:04;;;;;;;12.38;3.05;;;;;;;6.03;100.00;102410.16;6200434;23;20831;-70
2023/03/04 04:51:30;;;;;;;23.05;2.38;;;;;;;5.97;100.00;102407.59;6198562;23;20024;-70
2023/03/04 04:53:55;;;;;;;9.32;1.70;;;;;;;5.84;100.00;102411.34;6172716;23;20248;-72
2023/03/04 04:56:25;;;;;;;5.68;2.00;;;;;;;5.84;100.00;102409.56;6200237;23;20378;-68
2023/03/04 04:58:55;;;;;;;9.00;1.52;;;;;;;5.85;100.00;102408.66;6172417;23;20013;-69
2023/03/04 05:01:22;;;;;;;12.43;2.65;;;;;;;5.83;100.00;102412.25;6197041;23;20053;-71
2023/03/04 05:03:49;;;;;;;11.73;2.90;;;;;;;5.77;100.00;102415.00;6171871;23;20012;-70
2023/03/04 05:06:15;;;;;;;12.63;2.15;;;;;;;5.87;100.00;102414.81;6170500;23;20497;-69
2023/03/04 05:08:40;;;;;;;15.10;1.77;;;;;;;5.87;100.00;102406.88;6198412;23;20017;-70
2023/03/04 05:11:07;;;;;;;16.40;2.42;;;;;;;5.64;100.00;102409.94;6198238;23;20086;-72
2023/03/04 05:13:32;;;;;;;8.23;1.85;;;;;;;5.73;100.00;102408.91;6170554;23;20436;-70
2023/03/04 05:15:58;;;;;;;16.58;1.88;;;;;;;5.82;100.00;102410.50;6170913;23;20020;-69
2023/03/04 05:18:25;;;;;;;11.82;1.48;;;;;;;5.55;100.00;102407.44;6196492;23;20012;-70
2023/03/04 05:20:56;;;;;;;7.18;1.50;;;;;;;5.81;100.00;102414.03;6198566;23;20104;-71
2023/03/04 05:23:23;;;;;;;11.25;1.70;;;;;;;5.93;100.00;102413.88;6142727;23;20064;-72
2023/03/04 05:25:49;;;;;;;5.85;2.00;;;;;;;5.97;100.00;102416.44;6143544;23;20020;-70
2023/03/04 05:28:15;;;;;;;8.75;1.75;;;;;;;5.91;100.00;102412.97;6168153;23;20043;-71
2023/03/04 05:30:41;;;;;;;12.65;2.15;;;;;;;5.97;100.00;102415.53;6170671;23;20498;-71
2023/03/04 05:33:08;;;;;;;5.00;1.55;;;;;;;5.81;100.00;102409.63;6170332;23;20021;-69
2023/03/04 05:35:34;;;;;;;14.88;3.88;;;;;;;5.95;100.00;102407.63;6171949;23;20012;-72
2023/03/04 05:38:01;;;;;;;14.68;2.03;;;;;;;5.94;100.00;102405.88;6171939;23;20024;-72
2023/03/04 05:40:26;;;;;;;7.38;1.60;;;;;;;6.11;100.00;102402.03;6146529;23;20594;-71
2023/03/04 05:42:52;;;;;;;12.57;3.78;;;;;;;5.85;100.00;102410.44;6145207;23;20024;-67
2023/03/04 05:45:19;;;;;;;10.35;1.70;;;;;;;5.83;100.00;102407.84;6146763;23;20016;-72
2023/03/04 05:47:44;;;;;;;8.70;1.77;;;;;;;5.91;100.00;102411.22;6170042;23;20027;-67
2023/03/04 05:50:10;;;;;;;11.20;1.70;;;;;;;5.88;100.00;102413.06;6171335;23;20017;-67
2023/03/04 05:52:39;;;;;;;11.43;1.92;;;;;;;5.93;100.00;102417.38;6170214;23;20108;-72
2023/03/04 05:55:05;;;;;;;14.07;2.25;;;;;;;5.79;100.00;102418.50;6170338;23;20023;-69
2023/03/04 05:57:30;;;;;;;5.80;1.50;;;;;;;5.83;100.00;102415.78;6168793;23;20017;-72
2023/03/04 05:59:56;;;;;;;13.48;2.60;;;;;;;5.86;100.00;102428.94;6171007;23;20071;-72
2023/03/04 06:02:21;;;;;;;12.65;2.05;;;;;;;5.76;100.00;102419.41;6168657;23;20502;-71
2023/03/04 06:04:47;;;;;;;8.90;1.83;;;;;;;5.82;100.00;102424.59;6143578;23;20021;-71
2023/03/04 06:07:12;;;;;;;11.48;3.45;;;;;;;5.84;100.00;102420.16;6167392;23;20013;-71
2023/03/04 06:09:38;;;;;;;11.98;2.90;;;;;;;5.82;100.00;102426.38;6168774;23;20052;-71
2023/03/04 06:12:03;;;;;;;10.07;2.33;;;;;;;5.98;100.00;102422.59;6165470;23;20029;-72
2023/03/04 06:14:29;;;;;;;14.68;1.77;;;;;;;5.82;100.00;102421.94;6169135;23;20024;-69
2023/03/04 06:16:54;;;;;;;11.95;1.88;;;;;;;5.81;100.00;102417.56;6118942;23;20044;-70
2023/03/04 06:19:20;;;;;;;8.63;2.90;;;;;;;5.81;100.00;102419.34;6118836;23;20523;-69
2023/03/04 06:21:45;;;;;;;9.73;2.28;;;;;;;6.00;100.00;102422.56;6141956;23;20662;-70
2023/03/04 06:24:11;;;;;;;11.15;2.22;;;;;;;6.02;100.00;102426.91;6142412;23;20086;-69
2023/03/04 06:26:37;;;;;;;17.73;3.17;;;;;;;5.97;100.00;102432.31;6167853;23;20094;-71
2023/03/04 06:29:05;;;;;;;9.45;2.03;;;;;;;6.00;100.00;102427.84;6166487;23;20095;-69
2023/03/04 06:31:30;;;;;;;12.23;2.72;;;;;;;5.91;100.00;102428.84;6169392;23;20017;-70
2023/03/04 06:33:56;;;;;;;12.48;2.88;;;;;;;5.95;100.00;102430.59;6170217;23;20728;-69
2023/03/04 06:36:21;;;;;;;8.98;2.15;;;;;;;5.97;100.00;102432.31;6142284;23;20024;-70
2023/03/04 06:38:47;;;;;;;8.68;1.98;;;;;;;6.04;100.00;102429.56;6168369;23;20027;-70
2023/03/04 06:41:13;;;;;;;17.98;2.40;;;;;;;5.99;100.00;102426.13;6170385;23;20021;-67
2023/03/04 06:43:38;;;;;;;10.02;2.10;;;;;;;5.92;100.00;102431.53;6168370;23;20439;-70
2023/03/04 06:46:06;;;;;;;6.20;2.20;;;;;;;5.89;100.00;102430.69;6143067;23;20035;-71
2023/03/04 06:48:33;;;;;;;9.52;2.03;;;;;;;5.83;100.00;102430.78;6169829;23;20056;-70
2023/03/04 06:51:08;;;;;;;21.85;3.95;;;;;;;5.88;100.00;102437.75;6142311;23;20027;-69
2023/03/04 06:53:33;;;;;;;13.02;1.98;;;;;;;5.90;100.00;102435.94;6166579;23;20028;-70
2023/03/04 06:55:59;;;;;;;8.70;2.00;;;;;;;5.95;100.00;102435.88;6167281;23;20435;-69
2023/03/04 06:58:25;;;;;;;9.02;2.22;;;;;;;5.97;100.00;102434.97;6169656;23;20076;-70
2023/03/04 07:00:50;;;;;;;12.27;2.03;;;;;;;6.04;100.00;102433.06;6167023;23;20040;-69
2023/03/04 07:03:16;;;;;;;11.25;1.55;;;;;;;6.11;100.00;102428.53;6140982;23;20021;-68
2023/03/04 07:05:42;;;;;;;7.75;2.35;;;;;;;6.03;100.00;102431.31;6168202;23;20028;-69
2023/03/04 07:08:08;;;;;;;9.07;1.70;;;;;;;6.06;100.00;102433.91;6141516;23;20116;-71
2023/03/04 07:10:33;;;;;;;7.25;1.65;;;;;;;6.28;100.00;102450.28;6164835;23;20025;-72
2023/03/04 07:12:59;;;;;;;9.85;1.70;;;;;;;6.36;100.00;102431.56;6186242;22;20028;-70
2023/03/04 07:15:25;;;;;;;11.40;2.95;;;;;;;6.50;100.00;102432.16;6170372;23;20459;-69
2023/03/04 07:17:51;;;;;;;8.98;1.70;;;;;;;6.42;100.00;102434.94;6172709;23;20175;-69
2023/03/04 07:20:17;;;;;;;9.25;2.17;;;;;;;6.22;100.00;102440.69;6173762;23;20032;-68
2023/03/04 07:22:43;;;;;;;9.65;2.25;;;;;;;6.27;100.00;102444.97;6197825;22;20436;-70
2023/03/04 07:25:09;;;;;;;10.52;1.50;;;;;;;6.29;100.00;102441.41;6194391;23;20237;-70
2023/03/04 07:27:34;;;;;;;8.77;1.92;;;;;;;6.28;100.00;102437.03;6195254;23;20020;-70
2023/03/04 07:30:01;;;;;;;18.50;2.78;;;;;;;6.23;100.00;102449.50;6194629;23;20055;-69
2023/03/04 07:32:26;;;;;;;11.45;2.97;;;;;;;6.59;100.00;102433.75;6196792;23;20021;-69
2023/03/04 07:34:52;;;;;;;9.63;2.17;;;;;;;6.92;100.00;102440.06;6201649;23;20021;-69
2023/03/04 07:37:18;;;;;;;10.80;1.88;;;;;;;6.88;100.00;102436.63;6175147;23;20020;-69
2023/03/04 07:39:43;;;;;;;7.78;1.70;;;;;;;7.10;100.00;102441.44;6200769;23;20408;-72
2023/03/04 07:42:09;;;;;;;9.80;1.60;;;;;;;6.78;100.00;102439.50;6200083;23;20090;-69
2023/03/04 07:44:39;;;;;;;14.77;1.77;;;;;;;6.70;100.00;102437.91;6171235;23;20534;-70
2023/03/04 07:47:04;;;;;;;21.60;3.70;;;;;;;6.80;100.00;102438.56;6197385;23;20023;-69
2023/03/04 07:49:30;;;;;;;14.88;2.10;;;;;;;6.91;100.00;102431.25;6196875;23;20023;-71
2023/03/04 07:51:55;;;;;;;14.65;2.00;;;;;;;7.07;100.00;102441.50;6170571;23;20332;-69
2023/03/04 07:54:20;;;;;;;20.52;2.65;;;;;;;7.23;100.00;102438.47;6197692;23;20017;-71
2023/03/04 07:56:46;;;;;;;14.68;2.78;;;;;;;7.09;100.00;102435.28;6170129;23;20572;-73
2023/03/04 07:59:11;;;;;;;12.05;1.73;;;;;;;7.25;100.00;102439.31;6170965;23;20016;-71
2023/03/04 08:01:37;;;;;;;12.55;2.60;;;;;;;7.20;100.00;102441.19;6171214;23;20016;-72
2023/03/04 08:04:04;;;;;;;16.45;3.05;;;;;;;7.36;100.00;102439.03;6145589;23;20123;-72
2023/03/04 08:06:30;;;;;;;12.57;1.50;;;;;;;7.28;100.00;102438.38;6198381;23;20058;-70
2023/03/04 08:09:05;;;;;;;9.13;1.95;;;;;;;7.34;100.00;102437.34;6171838;23;20082;-71
2023/03/04 08:11:31;;;;;;;6.35;1.83;;;;;;;7.61;100.00;102441.09;6171220;23;20028;-71
2023/03/04 08:13:57;;;;;;;9.38;2.38;;;;;;;7.31;100.00;102448.03;6197850;23;20109;-70
2023/03/04 08:16:24;;;;;;;8.88;1.90;;;;;;;7.28;100.00;102446.34;6197897;23;20123;-70
2023/03/04 08:21:25;;;;;;;7.32;2.47;;;;;;;7.51;100.00;102443.09;6138191;23;20036;-69
2023/03/04 08:23:51;;;;;;;20.77;2.10;;;;;;;7.45;100.00;102446.78;6136510;23;20028;-71
2023/03/04 08:26:23;;;;;;;11.38;2.20;;;;;;;7.68;100.00;102448.88;6137835;23;20349;-70
2023/03/04 08:28:48;;;;;;;7.27;1.97;;;;;;;7.58;100.00;102446.47;6135759;23;20021;-70
2023/03/04 08:31:16;;;;;;;7.82;1.90;;;;;;;7.99;100.00;102456.03;6138008;23;20024;-69
2023/03/04 08:33:42;;;;;;;9.43;2.03;;;;;;;7.94;100.00;102456.16;6138271;23;20071;-69
2023/03/04 08:36:08;;;;;;;8.77;1.80;;;;;;;7.82;100.00;102461.78;6136094;23;20013;-69
2023/03/04 08:38:33;;;;;;;10.73;1.80;;;;;;;7.85;100.00;102459.06;6110284;23;20029;-71
2023/03/04 08:40:59;;;;;;;11.50;1.60;;;;;;;7.82;100.00;102456.47;6110218;23;20400;-70
2023/03/04 08:43:26;;;;;;;11.15;1.88;;;;;;;7.59;100.00;102454.41;6134839;23;20021;-69
2023/03/04 08:45:52;;;;;;;12.40;3.22;;;;;;;7.88;100.00;102456.34;6135605;23;20385;-69
2023/03/04 08:48:18;;;;;;;16.73;2.60;;;;;;;7.89;100.00;102457.19;6137304;23;20017;-69
2023/03/04 08:50:45;;;;;;;8.20;2.00;;;;;;;7.73;100.00;102446.97;6138361;23;20025;-68
2023/03/04 08:53:12;;;;;;;5.82;1.48;;;;;;;7.55;100.00;102455.41;6133884;23;20017;-70
2023/03/04 08:55:38;;;;;;;8.38;1.65;;;;;;;7.71;100.00;102461.19;6135384;23;20088;-69
2023/03/04 08:58:05;;;;;;;7.65;1.95;;;;;;;8.01;100.00;102455.06;6135030;23;20084;-69
2023/03/04 09:00:31;;;;;;;8.90;2.10;;;;;;;8.05;100.00;102450.56;6108429;23;20057;-69
2023/03/04 09:02:57;;;;;;;12.68;3.17;;;;;;;8.34;100.00;102452.41;6136766;23;20021;-70
2023/03/04 09:05:22;;;;;;;6.80;1.83;;;;;;;7.98;100.00;102459.59;6109654;23;20018;-71
2023/03/04 09:07:48;;;;;;;13.13;3.60;;;;;;;8.07;100.00;102453.16;6136005;23;20024;-69
2023/03/04 09:10:13;;;;;;;8.15;2.03;;;;;;;8.03;100.00;102457.69;6135734;23;20017;-69
2023/03/04 09:12:39;;;;;;;8.65;2.63;;;;;;;8.07;100.00;102458.47;6136935;23;20017;-69
2023/03/04 09:15:05;;;;;;;11.73;1.98;;;;;;;7.77;100.00;102453.06;6109213;23;20032;-69
2023/03/04 09:17:32;;;;;;;9.82;2.00;;;;;;;7.61;100.00;102454.38;6135526;23;20014;-70
2023/03/04 09:19:57;;;;;;;10.57;2.15;;;;;;;7.72;100.00;102455.81;6128286;23;20365;-71
2023/03/04 09:22:23;;;;;;;5.85;1.77;;;;;;;7.89;100.00;102452.75;6104572;23;20014;-71
2023/03/04 09:24:48;;;;;;;10.38;2.67;;;;;;;7.89;100.00;102451.88;6106271;23;20022;-69
2023/03/04 09:27:14;;;;;;;10.13;3.75;;;;;;;8.10;100.00;102456.63;6106701;23;20437;-69
2023/03/04 09:29:39;;;;;;;7.97;1.70;;;;;;;8.10;100.00;102455.75;6106881;23;20017;-71
2023/03/04 09:32:05;;;;;;;9.95;2.47;;;;;;;8.40;100.00;102446.09;6105325;23;20441;-71
2023/03/04 09:34:30;;;;;;;8.10;2.63;;;;;;;8.75;100.00;102442.41;6107980;23;20025;-71
2023/03/04 09:36:56;;;;;;;5.82;2.30;;;;;;;8.66;100.00;102440.88;6127993;23;20441;-69
2023/03/04 09:39:21;;;;;;;8.95;1.60;;;;;;;8.55;100.00;102429.69;6129919;23;20475;-69
2023/03/04 09:41:56;;;;;;;7.20;1.75;;;;;;;8.50;100.00;102431.63;6105049;23;20022;-70
2023/03/04 09:44:29;;;;;;;3.00;1.83;;;;;;;8.54;100.00;102435.94;6110513;23;20031;-68
2023/03/04 09:46:59;;;;;;;4.50;1.58;;;;;;;8.28;100.00;102429.56;6111433;23;20018;-70
2023/03/04 09:49:26;;;;;;;5.28;1.52;;;;;;;8.05;100.00;102435.50;6108333;23;20022;-69
2023/03/04 09:51:55;;;;;;;26.15;2.70;;;;;;;8.25;100.00;102426.09;6110226;23;20097;-71
2023/03/04 09:54:49;;;;;;;6.18;1.90;;;;;;;8.41;100.00;102423.91;6109687;23;20029;-71
2023/03/04 09:57:16;;;;;;;3.28;1.20;;;;;;;8.65;100.00;102425.84;6108553;23;20108;-68
2023/03/04 09:59:55;;;;;;;7.22;2.20;;;;;;;8.99;100.00;102420.38;6133634;23;20085;-71
2023/03/04 10:02:43;;;;;;;4.72;1.30;;;;;;;8.99;100.00;102423.03;6110318;23;20022;-72
2023/03/04 10:05:15;;;;;;;3.28;1.38;;;;;;;8.91;100.00;102416.19;6111642;23;20472;-70
2023/03/04 10:07:45;;;;;;;5.20;1.30;;;;;;;8.53;100.00;102413.78;6111245;23;20046;-71
2023/03/04 10:10:26;;;;;;;2.22;1.38;;;;;;;8.56;100.00;102420.78;6107976;23;20073;-71
2023/03/04 10:12:54;;;;;;;2.90;1.35;;;;;;;8.65;100.00;102419.66;6107172;23;20104;-70
2023/03/04 10:15:26;;;;;;;3.72;1.25;;;;;;;8.49;100.00;102414.81;6130154;23;20449;-69
2023/03/04 10:17:59;;;;;;;2.87;1.43;;;;;;;9.40;100.00;102415.50;6107234;23;20044;-71
2023/03/04 10:20:39;;;;;;;8.05;1.45;;;;;;;9.20;100.00;102410.81;6083551;23;20504;-71
2023/03/04 10:23:13;;;;;;;4.72;1.40;;;;;;;9.49;100.00;102415.19;6107736;23;20033;-70
2023/03/04 10:25:45;;;;;;;6.45;1.73;;;;;;;9.50;100.00;102406.28;6108283;23;20029;-69
2023/03/04 10:28:22;;;;;;;2.60;1.30;;;;;;;9.52;100.00;102395.56;6110332;23;20018;-71
2023/03/04 10:31:25;;;;;;;12.02;2.58;;;;;;;9.43;100.00;102402.06;6132272;23;20014;-70
2023/03/04 10:33:50;;;;;;;;;;;;;;;9.08;100.00;102405.88;6107872;23;20064;-71
2023/03/04 10:36:15;;;;;;;2.00;1.10;;;;;;;8.90;100.00;102396.72;6108473;23;20355;-71
2023/03/04 10:38:41;;;;;;;5.63;1.88;;;;;;;8.51;100.00;102406.78;6131240;23;20165;-71
2023/03/04 10:41:16;;;;;;;6.72;1.75;;;;;;;8.62;100.00;102402.00;6106976;23;20445;-70
2023/03/04 10:43:45;;;;;;;5.43;1.48;;;;;;;8.29;100.00;102406.50;6107138;23;20555;-68
2023/03/04 10:46:11;;;;;;;4.60;1.63;;;;;;;8.40;100.00;102408.88;6106516;23;20022;-71
2023/03/04 10:48:41;;;;;;;5.22;1.40;;;;;;;8.43;100.00;102409.63;6109624;23;20018;-70
2023/03/04 10:51:11;;;;;;;3.55;1.50;;;;;;;8.21;100.00;102416.47;6110101;23;20024;-71
2023/03/04 10:53:40;;;;;;;2.55;1.98;;;;;;;8.37;100.00;102412.47;6112054;23;20018;-71
2023/03/04 10:56:39;;;;;;;4.82;1.60;;;;;;;8.39;100.00;102410.66;6135270;23;20036;-70
2023/03/04 10:59:35;;;;;;;4.07;1.70;;;;;;;8.59;100.00;102411.88;6113429;23;20198;-70
2023/03/04 11:02:09;;;;;;;4.03;1.35;;;;;;;8.52;100.00;102405.84;6112742;23;20635;-71
2023/03/04 11:04:35;;;;;;;3.08;1.40;;;;;;;9.19;100.00;102397.59;6061346;23;20084;-71
2023/03/04 11:07:00;;;;;;;2.58;1.33;;;;;;;8.96;100.00;102399.16;6134813;23;20502;-71
2023/03/04 11:09:29;;;;;;;7.75;1.60;;;;;;;9.01;100.00;102399.03;6133976;23;20382;-70
2023/03/04 11:11:58;;;;;;;3.65;1.02;;;;;;;8.82;100.00;102388.94;6109434;23;20025;-68
2023/03/04 11:14:28;;;;;;;2.25;1.25;;;;;;;8.73;100.00;102394.56;6111794;23;20017;-70
2023/03/04 11:17:00;;;;;;;2.45;1.23;;;;;;;9.47;100.00;102385.06;6109419;23;20018;-69
2023/03/04 11:19:34;;;;;;;1.60;1.30;;;;;;;10.34;100.00;102381.09;6112521;23;20157;-70
2023/03/04 11:22:00;;;;;;;1.73;1.25;;;;;;;9.93;100.00;102387.91;6114535;23;20092;-70